Elmhurst, Illinois
Current Conditions -  °F | °C
As of 7:51 PM on Saturday 20 Dec 2014 (Local Time) from KORD Reporting Station
Overcast Overcast  
Wind Chill: 26°   Ceiling: 4500
Heat Index: 32°   Visibility: 10mi
Dew Point: 26°   Wind: 6mph
Humidity: 79%   Direction: 180°S
Pressure: 30.25"   Gusts: NA
Location:  41.9°N, 87.94°W
Report Text: KORD 210151Z 18005KT 10SM BKN045 OVC065 00/M03 A3025 RMK AO2 SLP252 T00001033
Loading
Personal Weather Stations






























Interactive Weather Map New forecast layout! Learn more

10-Day Weather Forecast

Advertisements
Track Severe Weather on mobile